Meteorología y climatología de Navarra
Datos de la estación - Meteo Navarra

Estación de Etxalar (Orizkiko Lepoa) GN

Altitud 395 m.


Datos desde el 09/01/2022 hasta el 10/01/2022 en horario solar
Los datos son PROVISIONALES

Anterior Página 1 de 1 Siguiente Descargar: Formato para Excel 2000 o superior   Formato csv   Formato para OpenOffice Calc
Fecha Temperatura Humedad relativa Radiación global Insolación Precipitación Vel. viento 10 m Vel. viento 10 m Dir. viento 10 m
°C % W/m² s l/m² m/s km/h °
09/01/2022 0:00 8.0 98 - - - - 1.1 - - - - - -
09/01/2022 0:10 8.1 98 - - - - 0.6 - - - - - -
09/01/2022 0:20 8.1 98 - - - - 0.3 - - - - - -
09/01/2022 0:30 8.1 98 - - - - 0.3 - - - - - -
09/01/2022 0:40 8.1 98 - - - - 0.5 - - - - - -
09/01/2022 0:50 8.2 98 - - - - 0.8 - - - - - -
09/01/2022 1:00 8.2 98 - - - - 0.8 - - - - - -
09/01/2022 1:10 8.1 98 - - - - 0.7 - - - - - -
09/01/2022 1:20 8.1 98 - - - - 0.7 - - - - - -
09/01/2022 1:30 8.0 98 - - - - 1.5 - - - - - -
09/01/2022 1:40 8.0 98 - - - - 0.4 - - - - - -
09/01/2022 1:50 8.0 98 - - - - 0.4 - - - - - -
09/01/2022 2:00 8.0 98 - - - - 0.4 - - - - - -
09/01/2022 2:10 8.0 98 - - - - 0.9 - - - - - -
09/01/2022 2:20 8.0 98 - - - - 0.1 - - - - - -
09/01/2022 2:30 8.0 98 - - - - 0.4 - - - - - -
09/01/2022 2:40 7.9 98 - - - - 0.6 - - - - - -
09/01/2022 2:50 7.8 98 - - - - 0.9 - - - - - -
09/01/2022 3:00 7.7 98 - - - - 0.5 - - - - - -
09/01/2022 3:10 7.7 98 - - - - 0.7 - - - - - -
09/01/2022 3:20 7.7 98 - - - - 0.0 - - - - - -
09/01/2022 3:30 7.7 97 - - - - 0.0 - - - - - -
09/01/2022 3:40 7.8 97 - - - - 0.0 - - - - - -
09/01/2022 3:50 7.8 96 - - - - 0.0 - - - - - -
09/01/2022 4:00 7.9 95 - - - - 0.0 - - - - - -
09/01/2022 4:10 8.0 94 - - - - 0.0 - - - - - -
09/01/2022 4:20 8.1 92 - - - - 0.1 - - - - - -
09/01/2022 4:30 8.0 93 - - - - 0.0 - - - - - -
09/01/2022 4:40 8.0 93 - - - - 0.1 - - - - - -
09/01/2022 4:50 8.0 94 - - - - 0.5 - - - - - -
09/01/2022 5:00 7.8 95 - - - - 0.2 - - - - - -
09/01/2022 5:10 7.7 95 - - - - 0.1 - - - - - -
09/01/2022 5:20 7.6 96 - - - - 0.0 - - - - - -
09/01/2022 5:30 7.7 95 - - - - 0.1 - - - - - -
09/01/2022 5:40 7.6 95 - - - - 0.0 - - - - - -
09/01/2022 5:50 7.5 95 - - - - 0.0 - - - - - -
09/01/2022 6:00 7.4 95 - - - - 0.3 - - - - - -
09/01/2022 6:10 7.5 95 - - - - 0.2 - - - - - -
09/01/2022 6:20 7.4 95 - - - - 0.1 - - - - - -
09/01/2022 6:30 7.5 95 - - - - 0.0 - - - - - -
09/01/2022 6:40 7.6 95 - - - - 0.0 - - - - - -
09/01/2022 6:50 7.7 95 - - - - 0.0 - - - - - -
09/01/2022 7:00 7.9 94 - - - - 0.1 - - - - - -
09/01/2022 7:10 7.9 93 - - - - 0.4 - - - - - -
09/01/2022 7:20 8.1 91 - - - - 0.1 - - - - - -
09/01/2022 7:30 8.5 85 - - - - 0.0 - - - - - -
09/01/2022 7:40 8.5 86 - - - - 0.1 - - - - - -
09/01/2022 7:50 8.5 86 - - - - 0.0 - - - - - -
09/01/2022 8:00 8.5 87 - - - - 0.0 - - - - - -
09/01/2022 8:10 8.7 89 - - - - 0.1 - - - - - -
09/01/2022 8:20 8.6 91 - - - - 0.9 - - - - - -
09/01/2022 8:30 8.4 90 - - - - 0.3 - - - - - -
09/01/2022 8:40 8.3 92 - - - - 0.2 - - - - - -
09/01/2022 8:50 8.6 91 - - - - 0.1 - - - - - -
09/01/2022 9:00 8.6 91 - - - - 0.5 - - - - - -
09/01/2022 9:10 8.4 92 - - - - 0.3 - - - - - -
09/01/2022 9:20 8.3 93 - - - - 0.6 - - - - - -
09/01/2022 9:30 8.0 96 - - - - 0.6 - - - - - -
09/01/2022 9:40 7.9 97 - - - - 1.6 - - - - - -
09/01/2022 9:50 7.9 97 - - - - 0.8 - - - - - -
09/01/2022 10:00 8.1 96 - - - - 0.2 - - - - - -
09/01/2022 10:10 8.1 96 - - - - 0.1 - - - - - -
09/01/2022 10:20 8.3 93 - - - - 1.0 - - - - - -
09/01/2022 10:30 8.2 95 - - - - 0.7 - - - - - -
09/01/2022 10:40 8.2 96 - - - - 0.6 - - - - - -
09/01/2022 10:50 8.2 96 - - - - 0.6 - - - - - -
09/01/2022 11:00 8.3 94 - - - - 0.2 - - - - - -
09/01/2022 11:10 8.5 90 - - - - 0.1 - - - - - -
09/01/2022 11:20 8.6 90 - - - - 0.4 - - - - - -
09/01/2022 11:30 8.5 92 - - - - 0.4 - - - - - -
09/01/2022 11:40 8.4 94 - - - - 0.8 - - - - - -
09/01/2022 11:50 8.4 94 - - - - 0.6 - - - - - -
09/01/2022 12:00 8.4 96 - - - - 0.6 - - - - - -
09/01/2022 12:10 8.4 97 - - - - 0.5 - - - - - -
09/01/2022 12:20 8.6 96 - - - - 0.6 - - - - - -
09/01/2022 12:30 8.6 93 - - - - 0.3 - - - - - -
09/01/2022 12:40 8.6 94 - - - - 0.5 - - - - - -
09/01/2022 12:50 8.7 94 - - - - 0.4 - - - - - -
09/01/2022 13:00 8.9 92 - - - - 0.4 - - - - - -
09/01/2022 13:10 8.7 91 - - - - 0.3 - - - - - -
09/01/2022 13:20 8.8 90 - - - - 0.2 - - - - - -
09/01/2022 13:30 8.9 88 - - - - 0.1 - - - - - -
09/01/2022 13:40 8.8 92 - - - - 0.2 - - - - - -
09/01/2022 13:50 8.8 94 - - - - 0.6 - - - - - -
09/01/2022 14:00 8.7 96 - - - - 0.6 - - - - - -
09/01/2022 14:10 8.5 93 - - - - 0.2 - - - - - -
09/01/2022 14:20 8.3 93 - - - - 0.1 - - - - - -
09/01/2022 14:30 8.3 95 - - - - 0.4 - - - - - -
09/01/2022 14:40 8.3 96 - - - - 0.6 - - - - - -
09/01/2022 14:50 8.3 96 - - - - 0.2 - - - - - -
09/01/2022 15:00 8.4 94 - - - - 0.4 - - - - - -
09/01/2022 15:10 8.2 96 - - - - 0.4 - - - - - -
09/01/2022 15:20 8.1 96 - - - - 0.7 - - - - - -
09/01/2022 15:30 8.1 97 - - - - 0.3 - - - - - -
09/01/2022 15:40 8.2 97 - - - - 0.7 - - - - - -
09/01/2022 15:50 8.2 97 - - - - 1.1 - - - - - -
09/01/2022 16:00 8.3 98 - - - - 0.8 - - - - - -
09/01/2022 16:10 8.3 98 - - - - 0.9 - - - - - -
09/01/2022 16:20 8.3 98 - - - - 0.9 - - - - - -
09/01/2022 16:30 8.4 98 - - - - 0.8 - - - - - -
09/01/2022 16:40 8.4 98 - - - - 0.9 - - - - - -
09/01/2022 16:50 8.4 98 - - - - 0.8 - - - - - -
09/01/2022 17:00 8.4 98 - - - - 0.8 - - - - - -
09/01/2022 17:10 8.4 98 - - - - 0.6 - - - - - -
09/01/2022 17:20 8.4 98 - - - - 0.6 - - - - - -
09/01/2022 17:30 8.4 98 - - - - 1.0 - - - - - -
09/01/2022 17:40 8.5 98 - - - - 0.6 - - - - - -
09/01/2022 17:50 8.5 98 - - - - 0.8 - - - - - -
09/01/2022 18:00 8.6 98 - - - - 0.4 - - - - - -
09/01/2022 18:10 8.6 98 - - - - 0.7 - - - - - -
09/01/2022 18:20 8.6 98 - - - - 0.9 - - - - - -
09/01/2022 18:30 8.7 98 - - - - 0.9 - - - - - -
09/01/2022 18:40 9.0 98 - - - - 0.7 - - - - - -
09/01/2022 18:50 9.5 98 - - - - 0.7 - - - - - -
09/01/2022 19:00 9.9 98 - - - - 1.2 - - - - - -
09/01/2022 19:10 10.7 98 - - - - 1.0 - - - - - -
09/01/2022 19:20 11.4 98 - - - - 0.6 - - - - - -
09/01/2022 19:30 11.7 97 - - - - 0.8 - - - - - -
09/01/2022 19:40 11.8 97 - - - - 0.9 - - - - - -
09/01/2022 19:50 11.8 97 - - - - 0.3 - - - - - -
09/01/2022 20:00 11.8 97 - - - - 0.5 - - - - - -
09/01/2022 20:10 11.8 97 - - - - 0.8 - - - - - -
09/01/2022 20:20 11.8 97 - - - - 0.7 - - - - - -
09/01/2022 20:30 11.8 98 - - - - 0.6 - - - - - -
09/01/2022 20:40 11.8 97 - - - - 0.7 - - - - - -
09/01/2022 20:50 11.8 98 - - - - 0.2 - - - - - -
09/01/2022 21:00 11.8 98 - - - - 0.2 - - - - - -
09/01/2022 21:10 11.7 98 - - - - 0.1 - - - - - -
09/01/2022 21:20 11.7 98 - - - - 0.2 - - - - - -
09/01/2022 21:30 11.7 98 - - - - 0.2 - - - - - -
09/01/2022 21:40 11.7 97 - - - - 0.3 - - - - - -
09/01/2022 21:50 11.8 97 - - - - 0.4 - - - - - -
09/01/2022 22:00 11.7 98 - - - - 0.6 - - - - - -
09/01/2022 22:10 11.6 98 - - - - 0.7 - - - - - -
09/01/2022 22:20 11.6 98 - - - - 0.4 - - - - - -
09/01/2022 22:30 11.6 97 - - - - 0.5 - - - - - -
09/01/2022 22:40 11.6 98 - - - - 0.6 - - - - - -
09/01/2022 22:50 11.6 98 - - - - 0.4 - - - - - -
09/01/2022 23:00 11.6 98 - - - - 0.4 - - - - - -
09/01/2022 23:10 11.7 97 - - - - 0.4 - - - - - -
09/01/2022 23:20 11.6 98 - - - - 0.5 - - - - - -
09/01/2022 23:30 11.6 98 - - - - 0.9 - - - - - -
09/01/2022 23:40 11.6 98 - - - - 0.6 - - - - - -
09/01/2022 23:50 11.6 98 - - - - 0.7 - - - - - -
Anterior Página 1 de 1 Siguiente

NOTA: Tipo de datos según el color:
   - Valores diarios o 10 minutos correctos
   - Valores diarios calculados a partir de un número de datos 10 minutos menor que 144 y mayor que 120, o de un número de datos semihorarios menor que 48 y mayor que 40 (caso de las estaciones de INTIA Y Ministerio)
   - Valores diez minutos estimados


Contacto        Enlaces        Aviso legal